CheckWX is a tool to help pilots better visualize weather data.  It is not intended as a substitute for an official pre-flight weather briefing.

12:23:52 UTC

KRWF METAR
Redwood Falls Municipal Airport
Redwood Falls, Minnesota, USA
Current

31 mins ago

KRWF 221153Z AUTO 12003KT 5SM BR CLR M14/M15 A3035 RMK AO2 SLP302 T11441150 11106 21144 58005
Observed
Feb-22 @ 11:53 UTC
Wind
  • 120° at 3 KTS
Visibility
5 SM
Flight Rules
MVFR
Conditions
Mist
Cloud Levels
  • Clear skies
Temperature
-14°C / 7°F
Dewpoint
-15°C / 5°F
Humidity
92%
Altimeter
30.35" Hg
Pressure
1030.2 hPa
Previous

2 hours ago

KRWF 221053Z AUTO 00000KT 7SM BKN055 M12/M14 A3036 RMK AO2 SLP304 T11171139
Observed
Feb-22 @ 10:53 UTC
Visibility
7 SM
Flight Rules
VFR
Cloud Levels
  • Broken at 5,500' AGL
Temperature
-12°C / 10°F
Dewpoint
-14°C / 7°F
Humidity
85%
Altimeter
30.36" Hg
Pressure
1030.4 hPa
Previous

3 hours ago

KRWF 220953Z AUTO 00000KT 7SM OVC065 M12/M13 A3036 RMK AO2 SLP302 T11171133
Observed
Feb-22 @ 09:53 UTC
Visibility
7 SM
Flight Rules
VFR
Cloud Levels
  • Overcast at 6,500' AGL
Temperature
-12°C / 10°F
Dewpoint
-13°C / 9°F
Humidity
92%
Altimeter
30.36" Hg
Pressure
1030.2 hPa